Time;durP1;ratioP1;P1;durP2;ratioP2;P2;SDS_P1;SDS_P2;PMS_P1;PMS_P2;Temp;Humidity;BMP_temperature;BMP_pressure;BME280_temperature;BME280_humidity;BME280_pressure;Samples;Min_cycle;Max_cycle;Signal;HPM_P1;HPM_P2
2022/07/26 00:01:28;;;;;;;13.23;4.03;;;17.20;99.90;;;;;;5012474;28;20082;-85
2022/07/26 00:03:53;;;;;;;10.45;4.00;;;17.10;99.90;;;;;;5004921;28;20044;-86
2022/07/26 00:06:19;;;;;;;10.93;3.88;;;17.10;99.90;;;;;;4988347;28;20487;-86
2022/07/26 00:08:46;;;;;;;11.73;4.57;;;17.20;99.90;;;;;;4996334;28;20121;-86
2022/07/26 00:11:12;;;;;;;10.80;3.10;;;17.10;99.90;;;;;;5012772;28;20042;-86
2022/07/26 00:13:38;;;;;;;13.55;4.65;;;17.10;99.90;;;;;;4996551;28;20095;-86
2022/07/26 00:16:04;;;;;;;12.63;3.58;;;17.10;99.90;;;;;;5010600;28;20076;-86
2022/07/26 00:18:29;;;;;;;11.55;3.83;;;17.10;99.90;;;;;;4999658;28;20092;-86
2022/07/26 00:20:55;;;;;;;11.77;4.00;;;17.10;99.90;;;;;;4996601;28;20507;-87
2022/07/26 00:23:21;;;;;;;9.43;3.53;;;17.10;99.90;;;;;;4996230;28;20488;-87
2022/07/26 00:26:04;;;;;;;9.50;4.03;;;17.10;99.90;;;;;;4996285;28;20132;-87
2022/07/26 00:28:30;;;;;;;;;;;17.10;99.90;;;;;;4995537;28;20499;-87
2022/07/26 00:30:56;;;;;;;10.13;3.90;;;17.00;99.90;;;;;;4997843;28;19921;-86
2022/07/26 00:33:21;;;;;;;12.30;3.58;;;17.00;99.90;;;;;;5015300;28;20030;-85
2022/07/26 00:35:47;;;;;;;15.13;3.90;;;17.00;99.90;;;;;;5015792;28;20083;-85
2022/07/26 00:38:12;;;;;;;14.07;4.10;;;17.00;99.90;;;;;;5015281;28;20080;-85
2022/07/26 00:40:38;;;;;;;11.88;4.50;;;16.80;99.90;;;;;;4989553;28;20041;-86
2022/07/26 00:43:04;;;;;;;13.02;3.97;;;16.80;99.90;;;;;;4998955;28;20042;-86
2022/07/26 00:45:29;;;;;;;13.55;4.40;;;16.90;99.90;;;;;;5007395;28;20368;-86
2022/07/26 00:47:55;;;;;;;10.93;4.30;;;16.90;99.90;;;;;;5031745;28;20040;-87
2022/07/26 00:50:20;;;;;;;11.75;4.18;;;16.80;99.90;;;;;;5005979;28;20485;-86
2022/07/26 00:52:48;;;;;;;9.95;4.00;;;16.80;99.90;;;;;;5027286;28;20104;-85
2022/07/26 00:55:14;;;;;;;13.60;4.65;;;16.80;99.90;;;;;;4994801;28;20061;-86
2022/07/26 00:57:41;;;;;;;13.27;4.25;;;16.70;99.90;;;;;;5003624;28;20038;-85
2022/07/26 01:00:13;;;;;;;14.75;4.18;;;16.80;99.90;;;;;;4995525;28;20045;-86
2022/07/26 01:02:39;;;;;;;13.38;4.43;;;16.70;99.90;;;;;;5004205;28;20034;-86
2022/07/26 01:05:06;;;;;;;13.48;4.32;;;16.80;99.90;;;;;;5015384;28;20115;-85
2022/07/26 01:07:31;;;;;;;11.38;4.53;;;16.80;99.90;;;;;;5002893;28;20484;-85
2022/07/26 01:09:57;;;;;;;19.13;4.80;;;16.80;99.90;;;;;;4991044;28;20046;-85
2022/07/26 01:12:23;;;;;;;13.70;4.15;;;16.70;99.90;;;;;;5011998;28;20100;-85
2022/07/26 01:14:48;;;;;;;15.85;4.60;;;16.80;99.90;;;;;;5025015;28;20037;-85
2022/07/26 01:17:14;;;;;;;10.75;4.68;;;16.70;99.90;;;;;;5006246;28;20428;-86
2022/07/26 01:19:41;;;;;;;11.88;4.88;;;16.70;99.90;;;;;;5019703;28;20034;-85
2022/07/26 01:22:07;;;;;;;12.07;4.35;;;16.70;99.90;;;;;;4991993;28;20041;-85
2022/07/26 01:24:33;;;;;;;10.18;4.28;;;16.70;99.90;;;;;;4997982;28;20377;-85
2022/07/26 01:26:58;;;;;;;14.80;5.15;;;16.70;99.90;;;;;;5011484;28;20040;-85
2022/07/26 01:29:24;;;;;;;14.35;5.03;;;16.60;99.90;;;;;;4995040;28;20073;-85
2022/07/26 01:31:50;;;;;;;15.35;4.70;;;16.60;99.90;;;;;;5017469;28;20082;-85
2022/07/26 01:34:16;;;;;;;13.93;4.75;;;16.60;99.90;;;;;;5019497;28;20400;-85
2022/07/26 01:36:42;;;;;;;10.77;4.22;;;16.50;99.90;;;;;;5004624;28;20037;-85
2022/07/26 01:39:08;;;;;;;14.32;5.18;;;16.60;99.90;;;;;;5005353;28;20037;-85
2022/07/26 01:41:34;;;;;;;14.48;4.40;;;16.50;99.90;;;;;;5019320;28;20432;-85
2022/07/26 01:44:00;;;;;;;15.98;4.93;;;16.40;99.90;;;;;;4994030;28;20084;-85
2022/07/26 01:46:25;;;;;;;12.40;4.43;;;16.50;99.90;;;;;;5009568;28;20056;-85
2022/07/26 01:48:51;;;;;;;10.95;4.25;;;16.40;99.90;;;;;;5013640;28;20483;-85
2022/07/26 01:51:16;;;;;;;12.70;4.85;;;16.40;99.90;;;;;;5005766;28;20068;-85
2022/07/26 01:53:44;;;;;;;13.63;4.40;;;16.30;99.90;;;;;;4995989;28;20041;-85
2022/07/26 01:56:13;;;;;;;17.35;6.18;;;16.30;99.90;;;;;;4986514;28;20511;-84
2022/07/26 01:58:40;;;;;;;13.27;5.03;;;16.20;99.90;;;;;;4994370;28;20120;-85
2022/07/26 02:01:07;;;;;;;14.02;4.70;;;16.30;99.90;;;;;;5017388;28;20546;-86
2022/07/26 02:03:32;;;;;;;14.05;5.18;;;16.20;99.90;;;;;;4997738;28;20086;-85
2022/07/26 02:05:58;;;;;;;14.93;5.18;;;16.20;99.90;;;;;;5026542;28;20041;-85
2022/07/26 02:08:24;;;;;;;15.23;4.60;;;16.20;99.90;;;;;;5023472;28;20068;-85
2022/07/26 02:10:59;;;;;;;12.82;4.45;;;16.20;99.90;;;;;;5004600;28;20069;-86
2022/07/26 02:13:29;;;;;;;9.63;5.00;;;16.20;99.90;;;;;;4988798;28;20045;-85
2022/07/26 02:15:57;;;;;;;11.52;5.13;;;16.20;99.90;;;;;;5002897;28;20038;-85
2022/07/26 02:18:24;;;;;;;12.90;5.03;;;16.20;99.90;;;;;;5001045;28;20034;-85
2022/07/26 02:20:50;;;;;;;19.70;5.80;;;16.20;99.90;;;;;;5005970;28;20113;-85
2022/07/26 02:23:15;;;;;;;14.00;5.28;;;16.20;99.90;;;;;;5014339;28;20128;-85
2022/07/26 02:25:41;;;;;;;17.95;5.85;;;16.20;99.90;;;;;;5017003;28;20030;-85
2022/07/26 02:28:07;;;;;;;10.18;4.65;;;16.20;99.90;;;;;;5016212;28;20030;-85
2022/07/26 02:30:32;;;;;;;13.55;5.05;;;16.20;99.90;;;;;;5009934;28;20116;-85
2022/07/26 02:32:58;;;;;;;18.42;5.47;;;16.20;99.90;;;;;;5005098;28;20034;-85
2022/07/26 02:35:24;;;;;;;13.05;5.22;;;16.30;99.90;;;;;;5004207;28;20513;-85
2022/07/26 02:37:49;;;;;;;15.43;5.20;;;16.30;99.90;;;;;;5006083;28;20467;-84
2022/07/26 02:40:15;;;;;;;13.13;5.13;;;16.30;99.90;;;;;;4996592;28;20036;-84
2022/07/26 02:42:41;;;;;;;12.80;5.40;;;16.30;99.90;;;;;;5017145;28;20511;-85
2022/07/26 02:50:11;;;;;;;11.77;4.95;;;16.30;99.90;;;;;;4973513;28;20043;-84
2022/07/26 02:52:39;;;;;;;10.50;4.55;;;16.30;99.90;;;;;;4951370;28;20035;-83
2022/07/26 02:59:04;;;;;;;8.65;5.07;;;16.30;99.90;;;;;;4859823;29;20058;-84
2022/07/26 03:01:30;;;;;;;17.08;5.95;;;16.30;99.90;;;;;;4930233;28;20043;-84
2022/07/26 05:13:25;;;;;;;4.50;2.60;;;16.70;99.90;;;;;;5796318;22;20840;-87
2022/07/26 05:15:51;;;;;;;6.78;3.10;;;16.70;99.90;;;;;;5002719;28;20041;-87
2022/07/26 05:18:16;;;;;;;7.68;2.92;;;16.70;99.90;;;;;;5003540;28;20041;-87
2022/07/26 05:20:42;;;;;;;4.75;2.83;;;16.70;99.90;;;;;;4998532;28;20072;-87
2022/07/26 05:23:08;;;;;;;10.60;3.42;;;16.80;99.90;;;;;;4996837;28;20029;-86
2022/07/26 05:25:34;;;;;;;7.45;3.28;;;16.80;99.90;;;;;;5003001;28;20037;-87
2022/07/26 05:28:00;;;;;;;5.35;3.35;;;16.90;99.90;;;;;;4998188;28;20056;-87
2022/07/26 05:30:25;;;;;;;4.90;2.47;;;16.90;99.90;;;;;;4998245;28;20041;-87
2022/07/26 05:32:51;;;;;;;4.95;2.70;;;17.00;99.90;;;;;;4997221;28;20034;-87
2022/07/26 05:35:17;;;;;;;5.60;2.30;;;17.10;99.90;;;;;;5025940;28;20135;-87
2022/07/26 05:37:42;;;;;;;3.90;1.83;;;17.10;99.90;;;;;;5023157;28;20033;-87
2022/07/26 05:40:09;;;;;;;3.95;1.65;;;17.10;99.90;;;;;;5013541;28;20147;-88
2022/07/26 05:42:35;;;;;;;3.83;2.00;;;17.10;99.90;;;;;;4996010;28;20518;-88
2022/07/26 05:45:01;;;;;;;5.30;2.10;;;17.10;99.90;;;;;;5005841;28;20072;-88
2022/07/26 05:47:26;;;;;;;2.55;1.42;;;17.20;99.90;;;;;;5030515;28;20040;-88
2022/07/26 05:49:52;;;;;;;5.63;1.63;;;17.20;99.90;;;;;;5032684;28;20388;-88
2022/07/26 05:52:17;;;;;;;5.45;1.75;;;17.10;99.90;;;;;;5005273;28;20037;-87
2022/07/26 05:54:43;;;;;;;3.17;1.27;;;17.20;99.90;;;;;;4999826;28;20033;-87
2022/07/26 05:57:09;;;;;;;3.47;0.90;;;17.00;99.90;;;;;;5020293;28;20033;-88
2022/07/26 05:59:34;;;;;;;1.90;0.70;;;17.00;99.90;;;;;;4997958;28;20045;-88
2022/07/26 06:02:00;;;;;;;3.00;0.80;;;16.80;99.90;;;;;;4996216;28;20090;-87
2022/07/26 06:04:26;;;;;;;4.78;0.80;;;16.70;99.90;;;;;;4997979;28;20038;-88
2022/07/26 06:06:53;;;;;;;4.63;1.10;;;16.60;99.90;;;;;;4997540;28;20041;-87
2022/07/26 06:09:19;;;;;;;2.08;0.80;;;16.60;99.90;;;;;;4995003;28;20037;-89
2022/07/26 06:11:44;;;;;;;2.50;0.90;;;16.60;99.90;;;;;;4992847;28;20526;-89
2022/07/26 06:14:10;;;;;;;4.43;0.73;;;16.50;99.90;;;;;;5004057;28;20487;-88
2022/07/26 06:16:35;;;;;;;6.20;1.00;;;16.60;99.90;;;;;;5005956;28;20053;-88
2022/07/26 06:19:01;;;;;;;4.78;0.98;;;16.60;99.90;;;;;;5000757;28;20065;-87
2022/07/26 06:21:27;;;;;;;2.38;0.63;;;16.60;99.90;;;;;;5001797;28;20030;-88
2022/07/26 06:23:52;;;;;;;5.38;0.80;;;16.70;99.90;;;;;;5005146;28;20082;-87
2022/07/26 06:26:18;;;;;;;4.05;0.60;;;16.70;99.90;;;;;;5005082;28;20127;-88
2022/07/26 06:28:44;;;;;;;2.22;0.70;;;16.70;99.90;;;;;;5006116;28;20403;-89
2022/07/26 06:31:09;;;;;;;1.90;0.70;;;16.80;99.90;;;;;;5004604;28;20045;-89
2022/07/26 06:33:35;;;;;;;2.20;0.63;;;16.80;99.90;;;;;;5031351;28;20041;-89
2022/07/26 06:36:01;;;;;;;3.50;0.70;;;16.80;99.90;;;;;;5008902;28;20030;-88
2022/07/26 06:38:27;;;;;;;3.95;1.25;;;16.90;99.90;;;;;;5012917;28;20063;-89
2022/07/26 06:40:53;;;;;;;2.60;0.70;;;16.90;99.90;;;;;;5008203;28;20120;-90
2022/07/26 06:43:19;;;;;;;1.25;0.47;;;16.90;99.90;;;;;;5011434;28;20579;-89
2022/07/26 06:45:45;;;;;;;1.77;0.60;;;17.00;99.90;;;;;;4996694;28;20030;-89
2022/07/26 06:48:11;;;;;;;4.93;1.17;;;17.00;99.90;;;;;;4995727;28;20498;-89
2022/07/26 06:50:37;;;;;;;2.40;0.52;;;17.10;99.90;;;;;;4994358;28;20045;-89
2022/07/26 06:53:02;;;;;;;1.70;0.40;;;17.10;99.90;;;;;;5002664;28;20041;-90
2022/07/26 06:55:28;;;;;;;2.58;0.70;;;17.10;99.90;;;;;;4995332;28;20040;-87
2022/07/26 06:57:54;;;;;;;2.40;0.50;;;17.10;99.90;;;;;;4995432;28;20056;-89
2022/07/26 07:00:19;;;;;;;4.40;1.05;;;17.20;99.90;;;;;;4992941;28;20487;-89
2022/07/26 07:02:45;;;;;;;3.92;0.60;;;17.20;99.90;;;;;;5025164;28;20542;-89
2022/07/26 07:05:11;;;;;;;3.97;0.70;;;17.20;99.90;;;;;;5011372;28;20291;-89
2022/07/26 07:07:37;;;;;;;1.33;0.35;;;17.20;99.90;;;;;;4997196;28;20065;-88
2022/07/26 07:10:04;;;;;;;3.33;0.50;;;17.40;99.90;;;;;;4988524;28;21432;-89
2022/07/26 07:12:30;;;;;;;2.58;0.60;;;17.40;99.90;;;;;;4996422;28;20068;-88
2022/07/26 07:14:55;;;;;;;3.00;0.77;;;17.50;99.90;;;;;;5014681;28;20042;-88
2022/07/26 07:17:21;;;;;;;5.15;0.70;;;17.30;99.90;;;;;;5000588;28;20072;-89
2022/07/26 07:19:47;;;;;;;3.05;0.60;;;17.20;99.90;;;;;;5016083;28;20037;-89
2022/07/26 07:22:13;;;;;;;2.85;0.77;;;17.30;99.90;;;;;;5000006;28;20474;-89
2022/07/26 07:24:40;;;;;;;3.03;0.60;;;17.30;99.90;;;;;;5000492;28;20069;-89
2022/07/26 07:27:05;;;;;;;1.35;0.30;;;17.30;99.90;;;;;;5000450;28;20113;-90
2022/07/26 07:29:31;;;;;;;2.15;0.50;;;17.30;99.90;;;;;;5016979;28;20191;-89
2022/07/26 07:31:57;;;;;;;1.52;0.40;;;17.20;99.90;;;;;;5000512;28;20037;-90
2022/07/26 07:34:22;;;;;;;1.45;0.30;;;17.20;99.90;;;;;;4998384;28;20060;-81
2022/07/26 07:36:51;;;;;;;1.52;0.40;;;17.30;99.90;;;;;;5013821;28;20042;-82
2022/07/26 07:39:17;;;;;;;2.05;0.30;;;17.30;99.90;;;;;;5021408;28;20026;-80
2022/07/26 07:41:44;;;;;;;0.55;0.25;;;17.40;99.90;;;;;;5006410;28;20444;-80
2022/07/26 07:44:10;;;;;;;1.83;0.30;;;17.50;99.90;;;;;;5012567;28;20391;-81
2022/07/26 07:46:35;;;;;;;1.33;0.40;;;17.70;99.90;;;;;;5012695;28;20034;-82
2022/07/26 07:49:01;;;;;;;4.68;0.90;;;17.80;99.90;;;;;;5011488;28;20040;-81
2022/07/26 07:51:27;;;;;;;3.05;0.43;;;17.90;99.90;;;;;;5023590;28;20470;-81
2022/07/26 07:53:53;;;;;;;3.28;0.50;;;18.00;99.90;;;;;;5022141;28;20043;-81
2022/07/26 07:56:19;;;;;;;3.05;0.57;;;18.20;99.90;;;;;;5021078;28;20084;-81
2022/07/26 07:58:45;;;;;;;2.55;0.45;;;18.30;99.90;;;;;;4999974;28;20033;-82
2022/07/26 08:01:11;;;;;;;3.40;0.45;;;18.30;99.90;;;;;;5003214;28;20040;-82
2022/07/26 08:03:37;;;;;;;3.55;0.70;;;18.20;99.90;;;;;;5009828;28;20044;-82
2022/07/26 08:06:05;;;;;;;2.08;0.50;;;18.10;99.90;;;;;;5031255;28;20045;-82
2022/07/26 08:08:31;;;;;;;1.77;0.90;;;18.00;99.90;;;;;;5015941;28;20133;-82
2022/07/26 08:10:57;;;;;;;4.80;1.08;;;17.90;99.90;;;;;;4999528;28;20100;-81
2022/07/26 08:13:23;;;;;;;2.05;0.60;;;17.90;99.90;;;;;;4997220;28;20037;-81
2022/07/26 08:15:50;;;;;;;1.15;0.40;;;18.00;99.90;;;;;;5015553;28;20049;-81
2022/07/26 08:18:16;;;;;;;3.15;0.47;;;18.10;99.90;;;;;;5017290;28;20056;-81
2022/07/26 08:20:41;;;;;;;2.33;0.32;;;18.20;99.90;;;;;;4999692;28;20476;-81
2022/07/26 08:23:07;;;;;;;1.05;0.40;;;18.60;99.90;;;;;;4997248;28;20037;-82
2022/07/26 08:25:32;;;;;;;2.70;0.30;;;19.10;99.90;;;;;;5007822;28;20076;-82
2022/07/26 08:27:58;;;;;;;1.60;0.40;;;19.80;99.90;;;;;;5035605;28;20043;-81
2022/07/26 08:30:23;;;;;;;3.70;0.63;;;20.30;99.90;;;;;;5010636;28;20033;-83
2022/07/26 08:32:49;;;;;;;3.53;1.05;;;20.50;99.90;;;;;;5023708;28;20036;-81
2022/07/26 08:35:15;;;;;;;1.98;0.40;;;20.40;99.90;;;;;;5007371;28;20442;-82
2022/07/26 08:37:40;;;;;;;1.48;0.30;;;20.30;99.90;;;;;;5033060;28;20093;-81
2022/07/26 08:40:06;;;;;;;1.90;0.40;;;20.20;99.90;;;;;;5016337;28;20034;-82
2022/07/26 08:42:32;;;;;;;0.93;0.30;;;20.10;99.90;;;;;;5003706;28;20521;-81
2022/07/26 08:44:58;;;;;;;3.08;0.70;;;20.00;99.90;;;;;;5010266;28;20033;-81
2022/07/26 08:47:24;;;;;;;2.20;0.50;;;20.10;99.90;;;;;;5010990;28;20042;-80
2022/07/26 08:49:50;;;;;;;1.65;0.40;;;20.30;99.90;;;;;;5011745;28;20048;-81
2022/07/26 08:52:15;;;;;;;1.85;0.30;;;20.50;99.90;;;;;;5012399;28;20407;-85
2022/07/26 08:54:49;;;;;;;4.00;1.05;;;20.40;99.90;;;;;;5028707;28;21215;-82
2022/07/26 08:57:15;;;;;;;1.80;0.40;;;20.10;99.90;;;;;;5010579;28;20043;-81
2022/07/26 08:59:41;;;;;;;1.00;0.30;;;19.80;99.90;;;;;;4998874;28;20037;-81
2022/07/26 09:02:12;;;;;;;3.25;0.40;;;19.60;99.90;;;;;;4997210;28;20080;-81
2022/07/26 09:04:40;;;;;;;1.88;0.40;;;19.40;99.90;;;;;;5014117;28;20037;-82
2022/07/26 09:07:17;;;;;;;2.83;0.30;;;19.20;99.90;;;;;;5009177;28;20034;-81
2022/07/26 09:10:03;;;;;;;3.03;0.57;;;19.10;99.90;;;;;;5032926;28;20033;-81
2022/07/26 09:12:30;;;;;;;3.28;0.90;;;18.90;99.90;;;;;;5018267;28;20052;-80
2022/07/26 09:14:56;;;;;;;3.08;0.70;;;18.90;99.90;;;;;;5011118;28;20115;-80
2022/07/26 09:17:25;;;;;;;2.75;0.52;;;19.00;99.90;;;;;;4994507;28;20061;-81
2022/07/26 09:20:05;;;;;;;3.15;0.70;;;19.00;99.90;;;;;;5005230;28;20112;-82
2022/07/26 09:22:31;;;;;;;3.05;0.60;;;19.50;99.90;;;;;;5015940;28;20041;-82
2022/07/26 09:24:57;;;;;;;2.70;0.50;;;20.10;99.90;;;;;;5001517;28;20052;-82
2022/07/26 09:27:23;;;;;;;3.35;0.73;;;20.70;99.90;;;;;;5018788;28;20052;-82
2022/07/26 09:29:51;;;;;;;2.90;0.65;;;21.40;99.90;;;;;;5008877;28;20041;-83
2022/07/26 09:32:24;;;;;;;2.92;0.82;;;22.10;99.90;;;;;;5013351;28;20030;-81
2022/07/26 09:34:55;;;;;;;2.78;0.45;;;22.50;99.90;;;;;;5019909;28;20068;-80
2022/07/26 09:37:45;;;;;;;2.55;0.50;;;22.80;99.90;;;;;;5009975;28;20114;-81
2022/07/26 09:40:13;;;;;;;2.20;0.55;;;22.60;99.90;;;;;;5011051;28;20037;-81
2022/07/26 09:42:53;;;;;;;2.45;0.40;;;22.40;99.90;;;;;;4999034;28;20057;-81
2022/07/26 09:45:18;;;;;;;1.35;0.40;;;22.40;99.90;;;;;;4996287;28;20049;-80
2022/07/26 09:47:44;;;;;;;2.25;0.52;;;22.30;99.90;;;;;;4998059;28;20045;-81
2022/07/26 09:50:14;;;;;;;1.48;0.30;;;22.20;99.90;;;;;;5023302;28;20460;-81
2022/07/26 09:52:56;;;;;;;1.95;0.70;;;22.30;99.90;;;;;;4999422;28;20095;-81
2022/07/26 09:55:22;;;;;;;3.20;0.47;;;22.30;99.90;;;;;;5019214;28;20530;-81
2022/07/26 09:57:50;;;;;;;3.28;0.60;;;22.20;99.90;;;;;;5002444;28;20073;-82
2022/07/26 10:00:16;;;;;;;2.63;0.80;;;22.10;99.90;;;;;;5016789;28;20030;-82
2022/07/26 10:02:41;;;;;;;3.85;0.63;;;21.80;99.90;;;;;;5027656;28;20073;-82
2022/07/26 10:05:07;;;;;;;5.07;0.60;;;21.40;99.90;;;;;;5008327;28;20065;-82
2022/07/26 10:07:33;;;;;;;2.20;0.57;;;21.10;99.90;;;;;;5023094;28;20029;-81
2022/07/26 10:10:22;;;;;;;4.60;0.63;;;20.80;99.90;;;;;;4999758;28;20034;-81
2022/07/26 10:12:53;;;;;;;4.90;0.80;;;20.50;99.90;;;;;;5002894;28;20033;-80
2022/07/26 10:15:46;;;;;;;2.80;1.15;;;20.40;99.90;;;;;;5016013;28;20075;-81
2022/07/26 10:18:37;;;;;;;7.30;0.88;;;20.30;99.90;;;;;;4983255;28;20046;-82
2022/07/26 10:21:17;;;;;;;3.08;0.80;;;20.50;99.90;;;;;;5024203;28;20057;-81
2022/07/26 10:23:48;;;;;;;4.00;0.73;;;21.00;99.90;;;;;;4993019;28;20091;-81
2022/07/26 10:26:32;;;;;;;4.03;0.88;;;21.30;99.90;;;;;;5012620;28;20056;-81
2022/07/26 10:29:16;;;;;;;1.77;0.50;;;21.40;99.90;;;;;;4996497;28;20052;-82
2022/07/26 10:31:42;;;;;;;5.35;0.88;;;21.30;99.90;;;;;;5000593;28;20042;-82
2022/07/26 10:34:08;;;;;;;2.78;0.80;;;21.10;99.90;;;;;;5002558;28;20039;-80
2022/07/26 10:36:36;;;;;;;2.50;0.70;;;20.90;99.90;;;;;;5016347;28;20037;-80
2022/07/26 10:39:07;;;;;;;5.05;1.20;;;20.60;99.90;;;;;;5020640;28;20095;-79
2022/07/26 10:41:57;;;;;;;3.53;0.90;;;20.20;99.90;;;;;;5020724;28;21421;-79
2022/07/26 10:44:31;;;;;;;5.72;1.08;;;19.90;99.90;;;;;;4997995;28;20079;-81
2022/07/26 10:47:07;;;;;;;5.03;0.93;;;19.60;99.90;;;;;;5017234;28;20063;-79
2022/07/26 10:49:56;;;;;;;3.33;1.00;;;19.30;99.90;;;;;;5018330;28;20041;-80
2022/07/26 10:52:32;;;;;;;6.10;1.33;;;19.10;99.90;;;;;;4991391;28;20087;-81
2022/07/26 10:55:02;;;;;;;7.25;1.10;;;18.90;99.90;;;;;;5020913;28;20033;-79
2022/07/26 10:57:33;;;;;;;5.00;1.50;;;18.90;99.90;;;;;;5030573;28;20119;-80
2022/07/26 11:00:00;;;;;;;4.97;1.00;;;18.90;99.90;;;;;;5006951;28;20053;-82
2022/07/26 11:02:31;;;;;;;5.78;1.00;;;19.00;99.90;;;;;;5032914;28;20068;-88
2022/07/26 11:05:14;;;;;;;4.60;0.88;;;19.20;99.90;;;;;;5010882;28;20033;-87
2022/07/26 11:07:50;;;;;;;6.80;1.08;;;19.50;99.90;;;;;;5000240;28;20066;-87
2022/07/26 11:10:25;;;;;;;4.32;1.23;;;20.00;99.90;;;;;;5014163;28;20041;-86
2022/07/26 11:13:04;;;;;;;4.80;1.02;;;20.60;99.90;;;;;;5023621;28;20479;-85
2022/07/26 11:15:30;;;;;;;3.25;0.80;;;21.20;99.90;;;;;;5008889;28;20387;-85
2022/07/26 11:18:13;;;;;;;3.83;1.17;;;21.50;99.90;;;;;;5009653;28;20068;-85
2022/07/26 11:20:39;;;;;;;2.97;0.87;;;21.60;99.90;;;;;;4997451;28;20042;-85
2022/07/26 11:23:28;;;;;;;5.95;1.00;;;21.60;99.90;;;;;;5004888;28;20088;-85
2022/07/26 11:46:30;;;;;;;;;;;;;;;;;;;;;
2022/07/26 11:49:13;;;;;;;;;;;20.30;99.90;;;;;;4936079;29;20056;-80
2022/07/26 11:52:14;;;;;;;5.70;1.10;;;20.20;99.90;;;;;;4998344;28;19921;-79
2022/07/26 11:55:49;;;;;;;6.20;1.10;;;20.00;99.90;;;;;;5015649;28;20458;-80
2022/07/26 12:03:02;;;;;;;7.65;1.30;;;20.20;99.90;;;;;;4964011;28;20122;-79
2022/07/26 12:10:07;;;;;;;;;;;;;;;;;;;;;
2022/07/26 12:13:29;;;;;;;5.75;1.38;;;20.50;99.90;;;;;;4937845;29;20054;-79
2022/07/26 12:17:07;;;;;;;4.70;1.02;;;21.10;99.90;;;;;;4910762;29;20051;-79
2022/07/26 12:19:51;;;;;;;;;;;21.50;99.90;;;;;;4922702;29;20565;-80
2022/07/26 12:23:28;;;;;;;3.92;1.00;;;21.70;93.70;;;;;;4890992;28;19926;-79
2022/07/26 12:26:59;;;;;;;5.53;0.77;;;21.70;96.90;;;;;;4882471;29;20328;-78
2022/07/26 12:30:34;;;;;;;3.92;0.80;;;21.50;96.50;;;;;;4906425;28;20054;-79
2022/07/26 12:42:53;;;;;;;2.92;0.60;;;22.30;97.40;;;;;;4765200;30;20202;-81
2022/07/26 13:09:32;;;;;;;4.68;0.70;;;23.50;89.00;;;;;;4897142;29;20051;-79
2022/07/26 13:12:30;;;;;;;2.15;0.60;;;23.40;89.60;;;;;;4915353;29;20078;-79
2022/07/26 13:15:03;;;;;;;2.50;0.77;;;23.40;89.60;;;;;;4952884;29;20043;-81
2022/07/26 13:17:54;;;;;;;3.65;0.90;;;23.20;89.50;;;;;;4947445;28;20111;-80
2022/07/26 13:20:33;;;;;;;3.40;0.73;;;23.30;89.40;;;;;;4980059;28;20415;-80
2022/07/26 13:23:14;;;;;;;;;;;;;;;;;;;;;
2022/07/26 13:25:54;;;;;;;3.22;0.70;;;23.70;86.90;;;;;;4994651;28;20053;-80
2022/07/26 13:28:39;;;;;;;2.47;0.52;;;23.70;83.10;;;;;;4979133;28;20134;-80
2022/07/26 13:31:17;;;;;;;;;;;;;;;;;;;;;
2022/07/26 13:33:52;;;;;;;2.47;0.80;;;23.20;85.80;;;;;;4992086;28;20038;-80
2022/07/26 13:36:19;;;;;;;3.28;0.70;;;23.00;83.90;;;;;;4995986;28;20088;-79
2022/07/26 13:38:52;;;;;;;3.15;0.70;;;22.80;86.90;;;;;;4980310;28;20041;-80
2022/07/26 13:41:19;;;;;;;3.53;0.73;;;22.80;88.60;;;;;;4976098;28;20037;-80
2022/07/26 13:43:54;;;;;;;3.25;0.70;;;22.80;86.60;;;;;;4988972;28;20098;-80
2022/07/26 13:46:25;;;;;;;4.97;0.98;;;22.60;85.90;;;;;;4973332;28;20041;-79
2022/07/26 13:48:55;;;;;;;2.67;0.63;;;22.40;86.40;;;;;;4985644;28;20041;-79
2022/07/26 13:54:29;;;;;;;2.80;0.68;;;22.20;86.80;;;;;;4995683;28;20180;-79
2022/07/26 14:04:35;;;;;;;3.60;0.85;;;22.50;83.20;;;;;;5010603;28;20041;-82
2022/07/26 14:17:22;;;;;;;2.20;0.63;;;23.20;83.30;;;;;;5167535;22;20050;-84
2022/07/26 14:19:47;;;;;;;3.55;0.50;;;23.40;83.50;;;;;;4999724;28;20045;-84
2022/07/26 14:22:13;;;;;;;3.42;0.70;;;23.50;83.30;;;;;;4998151;28;20038;-84
2022/07/26 14:24:39;;;;;;;3.50;0.60;;;23.20;81.10;;;;;;5020387;28;20040;-84
2022/07/26 14:27:04;;;;;;;3.80;0.52;;;22.90;83.00;;;;;;5016978;28;20543;-83
2022/07/26 14:29:30;;;;;;;3.47;0.70;;;22.50;81.30;;;;;;5026103;28;20511;-84
2022/07/26 15:03:09;;;;;;;2.55;0.90;;;24.40;75.30;;;;;;5672969;22;20095;-80
2022/07/26 15:05:40;;;;;;;2.03;0.70;;;24.10;75.90;;;;;;5048207;28;20033;-80
2022/07/26 15:08:14;;;;;;;4.00;0.90;;;23.80;74.80;;;;;;5037582;28;20024;-80
2022/07/26 15:15:05;;;;;;;1.63;0.60;;;23.10;75.20;;;;;;4979217;28;20586;-80
2022/07/26 16:00:48;;;;;;;3.75;0.80;;;19.40;81.90;;;;;;5021203;28;20038;-80
2022/07/26 16:03:44;;;;;;;;;;;;;;;;;;;;;
2022/07/26 16:06:18;;;;;;;2.50;0.80;;;19.30;81.80;;;;;;4943870;28;20488;-79
2022/07/26 16:12:27;;;;;;;2.63;0.70;;;19.20;82.50;;;;;;5032148;22;20404;-81
2022/07/26 16:14:52;;;;;;;2.72;1.17;;;19.30;82.70;;;;;;4981396;28;20041;-84
2022/07/26 16:17:18;;;;;;;2.65;0.60;;;19.30;83.90;;;;;;4975790;28;20530;-84
2022/07/26 16:19:44;;;;;;;1.98;0.68;;;19.30;81.80;;;;;;4991141;28;20030;-84
2022/07/26 16:22:09;;;;;;;3.80;0.80;;;19.30;83.30;;;;;;4976975;28;20121;-83
2022/07/26 16:24:35;;;;;;;1.52;0.63;;;19.30;84.90;;;;;;4941861;28;20039;-83
2022/07/26 16:27:01;;;;;;;2.17;0.65;;;19.30;84.40;;;;;;4957553;28;20042;-83
2022/07/26 16:29:27;;;;;;;4.50;0.90;;;19.30;84.70;;;;;;4976064;28;20054;-84
2022/07/26 16:31:54;;;;;;;3.78;0.70;;;19.20;85.40;;;;;;4949613;28;20035;-84
2022/07/26 16:34:20;;;;;;;3.00;0.70;;;19.20;85.20;;;;;;4969678;28;20041;-84
2022/07/26 16:36:46;;;;;;;3.22;0.70;;;19.10;85.90;;;;;;4966642;28;20041;-83
2022/07/26 16:39:12;;;;;;;2.97;0.60;;;19.00;87.20;;;;;;4965875;28;20030;-84
2022/07/26 16:41:37;;;;;;;3.72;0.70;;;19.00;87.80;;;;;;4976581;28;20054;-83
2022/07/26 16:44:04;;;;;;;3.47;1.13;;;19.00;89.20;;;;;;4974885;28;20117;-83
2022/07/26 16:46:30;;;;;;;3.35;0.73;;;19.10;89.20;;;;;;4974963;28;20034;-83
2022/07/26 16:48:56;;;;;;;2.35;0.75;;;19.10;88.50;;;;;;4952087;28;20592;-84
2022/07/26 16:51:21;;;;;;;2.47;0.57;;;19.10;88.10;;;;;;4976449;28;20061;-83
2022/07/26 16:53:50;;;;;;;2.22;0.73;;;19.00;89.50;;;;;;4972837;28;20093;-84
2022/07/26 16:56:17;;;;;;;3.22;0.90;;;19.00;90.10;;;;;;4949160;28;20121;-85
2022/07/26 16:58:43;;;;;;;2.30;0.65;;;18.90;90.50;;;;;;4940644;28;20057;-84
2022/07/26 17:01:08;;;;;;;1.98;0.50;;;18.90;90.10;;;;;;4956827;28;20117;-84
2022/07/26 17:03:34;;;;;;;3.53;0.57;;;18.90;88.70;;;;;;4943746;28;20140;-84
2022/07/26 17:06:02;;;;;;;1.33;0.50;;;18.80;90.00;;;;;;4967983;28;20034;-84
2022/07/26 17:08:28;;;;;;;4.22;0.68;;;18.80;90.70;;;;;;4975688;28;20046;-84
2022/07/26 17:10:54;;;;;;;1.40;0.60;;;18.70;90.80;;;;;;4976278;28;20039;-83
2022/07/26 17:13:20;;;;;;;2.90;1.08;;;18.70;91.30;;;;;;4959103;28;20048;-84
2022/07/26 17:15:46;;;;;;;2.50;0.50;;;18.70;91.10;;;;;;4949457;28;20404;-83
2022/07/26 17:18:12;;;;;;;0.82;0.45;;;18.60;92.10;;;;;;4940464;28;20043;-84
2022/07/26 17:20:37;;;;;;;2.28;1.15;;;18.60;92.40;;;;;;4940715;28;20035;-83
2022/07/26 17:23:03;;;;;;;3.30;0.65;;;18.50;92.70;;;;;;4940365;28;20512;-84
2022/07/26 17:25:29;;;;;;;2.95;0.60;;;18.40;92.70;;;;;;4949588;28;20034;-82
2022/07/26 17:27:55;;;;;;;2.53;0.65;;;18.30;93.40;;;;;;4967699;28;20492;-84
2022/07/26 17:30:20;;;;;;;1.83;0.52;;;18.20;94.70;;;;;;4975640;28;20050;-84
2022/07/26 17:32:46;;;;;;;3.17;0.80;;;18.10;95.50;;;;;;4959543;28;20573;-83
2022/07/26 17:35:14;;;;;;;2.45;0.60;;;18.10;96.60;;;;;;4973120;28;20038;-84
2022/07/26 17:37:40;;;;;;;3.30;0.75;;;18.00;97.70;;;;;;4967196;28;20097;-83
2022/07/26 17:40:07;;;;;;;3.42;0.80;;;18.10;98.90;;;;;;4975060;28;20034;-82
2022/07/26 17:42:33;;;;;;;1.75;0.60;;;18.10;99.70;;;;;;4951096;28;20054;-83
2022/07/26 17:44:58;;;;;;;1.42;0.95;;;18.10;99.90;;;;;;4959530;28;20042;-83
2022/07/26 17:47:24;;;;;;;3.85;0.80;;;18.10;99.90;;;;;;4958911;28;20057;-83
2022/07/26 17:49:49;;;;;;;3.35;0.73;;;17.90;99.90;;;;;;4964296;28;20038;-82
2022/07/26 17:52:15;;;;;;;3.20;0.65;;;18.00;99.90;;;;;;4967114;28;20061;-83
2022/07/26 17:54:40;;;;;;;1.45;0.60;;;17.90;99.90;;;;;;4975605;28;20493;-84
2022/07/26 17:57:06;;;;;;;2.20;0.60;;;17.90;99.50;;;;;;4965329;28;20034;-83
2022/07/26 17:59:32;;;;;;;3.08;0.60;;;17.80;99.70;;;;;;4966714;28;20030;-83
2022/07/26 18:02:00;;;;;;;1.35;0.47;;;17.80;99.80;;;;;;4975871;28;20053;-83
2022/07/26 18:04:26;;;;;;;2.22;0.88;;;17.70;99.60;;;;;;4959646;28;20042;-83
2022/07/26 18:06:51;;;;;;;2.25;0.52;;;17.60;99.70;;;;;;4967912;28;20053;-83
2022/07/26 18:09:17;;;;;;;2.20;0.60;;;17.60;99.90;;;;;;4967171;28;20351;-83